createdAt,value
2018-07-24T00:00:34.376Z,0.00
2018-07-24T00:01:34.554Z,0.00
2018-07-24T00:02:34.725Z,0.00
2018-07-24T00:03:34.899Z,0.00
2018-07-24T00:04:35.080Z,0.00
2018-07-24T00:05:35.259Z,0.00
2018-07-24T00:06:35.438Z,0.00
2018-07-24T00:07:35.624Z,0.00
2018-07-24T00:08:35.801Z,0.00
2018-07-24T00:09:35.984Z,0.00
2018-07-24T00:10:36.168Z,0.00
2018-07-24T00:11:36.344Z,0.00
2018-07-24T00:12:36.515Z,0.00
2018-07-24T00:13:36.707Z,0.00
2018-07-24T00:14:36.887Z,0.00
2018-07-24T00:15:37.067Z,0.00
2018-07-24T00:16:37.248Z,0.00
2018-07-24T00:17:37.435Z,0.00
2018-07-24T00:18:37.610Z,0.00
2018-07-24T00:19:37.789Z,0.00
2018-07-24T00:20:37.970Z,0.00
2018-07-24T00:21:38.149Z,0.00
2018-07-24T00:22:38.345Z,0.00
2018-07-24T00:23:38.538Z,0.00
2018-07-24T00:24:38.737Z,0.00
2018-07-24T00:25:38.920Z,0.00
2018-07-24T00:26:39.097Z,0.00
2018-07-24T00:27:39.272Z,0.00
2018-07-24T00:28:39.447Z,0.00
2018-07-24T00:29:39.623Z,0.00
2018-07-24T00:30:39.860Z,0.00
2018-07-24T00:31:39.914Z,0.00
2018-07-24T00:32:40.089Z,0.00
2018-07-24T00:33:40.270Z,0.00
2018-07-24T00:34:40.444Z,0.00
2018-07-24T00:35:40.619Z,0.00
2018-07-24T00:36:40.796Z,0.00
2018-07-24T00:37:40.975Z,0.00
2018-07-24T00:38:41.166Z,0.00
2018-07-24T00:39:41.337Z,0.00
2018-07-24T00:40:41.510Z,0.00
2018-07-24T00:41:41.700Z,0.00
2018-07-24T00:42:41.879Z,0.00
2018-07-24T00:43:42.061Z,0.00
2018-07-24T00:44:42.235Z,0.00
2018-07-24T00:45:42.416Z,0.00
2018-07-24T00:46:42.587Z,0.00
2018-07-24T00:47:42.761Z,0.00
2018-07-24T00:48:42.938Z,0.00
2018-07-24T00:49:43.113Z,0.00
2018-07-24T00:50:43.293Z,0.00
2018-07-24T00:51:43.469Z,0.00
2018-07-24T00:52:43.660Z,0.00
2018-07-24T00:53:43.865Z,0.00
2018-07-24T00:54:44.043Z,0.00
2018-07-24T00:55:44.230Z,0.00
2018-07-24T00:56:44.417Z,0.00
2018-07-24T00:57:44.584Z,0.00
2018-07-24T00:58:44.756Z,0.00
2018-07-24T00:59:44.933Z,0.00
2018-07-24T01:00:45.116Z,0.00
2018-07-24T01:01:45.285Z,0.00
2018-07-24T01:02:45.464Z,0.00
2018-07-24T01:03:45.647Z,0.00
2018-07-24T01:04:45.825Z,0.00
2018-07-24T01:05:46.000Z,0.00
2018-07-24T01:06:46.175Z,0.00
2018-07-24T01:07:46.349Z,0.00
2018-07-24T01:08:46.527Z,0.00
2018-07-24T01:09:46.700Z,0.00
2018-07-24T01:10:46.888Z,0.00
2018-07-24T01:11:47.071Z,0.00
2018-07-24T01:12:47.261Z,0.00
2018-07-24T01:13:47.437Z,0.00
2018-07-24T01:14:47.615Z,0.00
2018-07-24T01:15:50.149Z,0.00
2018-07-24T01:16:51.300Z,0.00
2018-07-24T01:17:50.619Z,0.00
2018-07-24T01:18:49.952Z,0.00
2018-07-24T01:19:50.181Z,0.00
2018-07-24T01:20:53.864Z,0.00
2018-07-24T01:21:48.710Z,0.00
2018-07-24T01:22:48.887Z,0.00
2018-07-24T01:23:49.067Z,0.00
2018-07-24T01:24:49.244Z,0.00
2018-07-24T01:25:49.433Z,0.00
2018-07-24T01:26:49.596Z,0.00
2018-07-24T01:27:49.772Z,0.00
2018-07-24T01:28:49.949Z,0.00
2018-07-24T01:29:50.133Z,0.00
2018-07-24T01:30:50.319Z,0.00
2018-07-24T01:31:50.496Z,0.00
2018-07-24T01:32:50.669Z,0.00
2018-07-24T01:33:50.848Z,0.00
2018-07-24T01:34:51.020Z,0.00
2018-07-24T01:35:51.191Z,0.00
2018-07-24T01:36:51.368Z,0.00
2018-07-24T01:37:51.547Z,0.00
2018-07-24T01:38:51.716Z,0.00
2018-07-24T01:39:51.895Z,0.00
2018-07-24T01:40:52.063Z,0.00
2018-07-24T01:41:52.234Z,0.00
2018-07-24T01:42:52.407Z,0.00
2018-07-24T01:43:52.584Z,0.00
2018-07-24T01:44:52.761Z,0.00
2018-07-24T01:45:52.947Z,0.00
2018-07-24T01:46:53.161Z,0.00
2018-07-24T01:47:53.291Z,0.00
2018-07-24T01:48:53.466Z,0.00
2018-07-24T01:49:53.638Z,0.00
2018-07-24T01:50:53.815Z,0.00
2018-07-24T01:51:53.986Z,0.00
2018-07-24T01:52:54.167Z,0.00
2018-07-24T01:53:54.347Z,0.00
2018-07-24T01:54:54.524Z,0.00
2018-07-24T01:55:54.696Z,0.00
2018-07-24T01:56:54.871Z,0.00
2018-07-24T01:57:55.051Z,0.00
2018-07-24T01:58:55.228Z,0.00
2018-07-24T01:59:55.412Z,0.00
2018-07-24T02:00:55.585Z,0.00
2018-07-24T02:01:55.766Z,0.00
2018-07-24T02:02:55.941Z,0.00
2018-07-24T02:03:56.115Z,0.00
2018-07-24T02:04:56.290Z,0.00
2018-07-24T02:05:56.462Z,0.00
2018-07-24T02:06:56.632Z,0.00
2018-07-24T02:07:56.807Z,0.00
2018-07-24T02:08:56.989Z,0.00
2018-07-24T02:09:57.166Z,0.00
2018-07-24T02:10:57.337Z,0.00
2018-07-24T02:11:57.510Z,0.00
2018-07-24T02:12:57.686Z,0.00
2018-07-24T02:13:57.859Z,0.00
2018-07-24T02:14:58.034Z,0.00
2018-07-24T02:15:58.220Z,0.00
2018-07-24T02:16:58.391Z,0.00
2018-07-24T02:17:58.572Z,0.00
2018-07-24T02:18:58.749Z,0.00
2018-07-24T02:19:58.921Z,0.00
2018-07-24T02:20:59.089Z,0.00
2018-07-24T02:21:59.265Z,0.00
2018-07-24T02:22:59.446Z,0.00
2018-07-24T02:23:59.629Z,0.00
2018-07-24T02:24:59.806Z,0.00
2018-07-24T02:25:59.984Z,0.00
2018-07-24T02:27:00.154Z,0.00
2018-07-24T02:28:00.328Z,0.00
2018-07-24T02:29:00.501Z,0.00
2018-07-24T02:30:00.678Z,0.00
2018-07-24T02:31:00.852Z,0.00
2018-07-24T02:32:01.103Z,0.00
2018-07-24T02:33:01.215Z,0.00
2018-07-24T02:34:01.390Z,0.00
2018-07-24T02:35:01.561Z,0.00
2018-07-24T02:36:01.736Z,0.00
2018-07-24T02:37:01.907Z,0.00
2018-07-24T02:38:02.079Z,0.00
2018-07-24T02:39:02.256Z,0.00
2018-07-24T02:40:02.428Z,0.00
2018-07-24T02:41:02.606Z,0.00
2018-07-24T02:42:02.777Z,0.00
2018-07-24T02:43:02.948Z,0.00
2018-07-24T02:44:03.128Z,0.00
2018-07-24T02:45:03.313Z,0.00
2018-07-24T02:46:03.484Z,0.00
2018-07-24T02:47:03.660Z,0.00
2018-07-24T02:48:03.833Z,0.00
2018-07-24T02:49:04.015Z,0.00
2018-07-24T02:50:04.179Z,0.00
2018-07-24T02:51:04.355Z,0.00
2018-07-24T02:52:04.531Z,0.00
2018-07-24T02:53:04.701Z,0.00
2018-07-24T02:54:04.878Z,0.00
2018-07-24T02:55:05.061Z,0.00
2018-07-24T02:56:05.234Z,0.00
2018-07-24T02:57:05.408Z,0.00
2018-07-24T02:58:05.596Z,0.00
2018-07-24T02:59:05.752Z,0.00
2018-07-24T03:00:05.935Z,0.00
2018-07-24T03:01:06.103Z,0.00
2018-07-24T03:02:06.284Z,0.00
2018-07-24T03:03:06.457Z,0.00
2018-07-24T03:04:06.633Z,0.00
2018-07-24T03:05:06.813Z,0.00
2018-07-24T03:06:06.984Z,0.00
2018-07-24T03:07:07.158Z,0.00
2018-07-24T03:08:07.329Z,0.00
2018-07-24T03:09:07.502Z,0.00
2018-07-24T03:10:07.681Z,0.00
2018-07-24T03:11:07.858Z,0.00
2018-07-24T03:12:08.036Z,0.00
2018-07-24T03:13:08.208Z,0.00
2018-07-24T03:14:08.384Z,0.00
2018-07-24T03:15:08.561Z,0.00
2018-07-24T03:16:08.822Z,0.00
2018-07-24T03:17:08.919Z,0.00
2018-07-24T03:18:09.103Z,0.00
2018-07-24T03:19:09.286Z,0.00
2018-07-24T03:20:09.464Z,0.00
2018-07-24T03:21:09.645Z,0.00
2018-07-24T03:22:09.811Z,0.00
2018-07-24T03:23:09.987Z,0.00
2018-07-24T03:24:10.162Z,0.00
2018-07-24T03:25:10.342Z,0.00
2018-07-24T03:26:10.517Z,0.00
2018-07-24T03:27:10.694Z,0.00
2018-07-24T03:28:10.869Z,0.00
2018-07-24T03:29:11.048Z,0.00
2018-07-24T03:30:11.221Z,0.00
2018-07-24T03:31:11.397Z,0.00
2018-07-24T03:32:11.585Z,0.00
2018-07-24T03:33:11.755Z,0.00
2018-07-24T03:34:11.929Z,0.00
2018-07-24T03:35:12.108Z,0.00
2018-07-24T03:36:12.279Z,0.00
2018-07-24T03:37:12.460Z,0.00
2018-07-24T03:38:12.631Z,0.00
2018-07-24T03:39:15.789Z,0.00
2018-07-24T03:40:15.485Z,0.00
2018-07-24T03:41:20.872Z,5.63
2018-07-24T03:42:14.602Z,5.63
2018-07-24T03:43:16.190Z,5.63
2018-07-24T03:44:16.563Z,5.63
2018-07-24T03:45:16.752Z,5.63
2018-07-24T03:46:19.173Z,5.63
2018-07-24T03:47:16.473Z,5.63
2018-07-24T03:48:17.717Z,5.63
2018-07-24T03:49:15.123Z,5.63
2018-07-24T03:50:18.494Z,5.63
2018-07-24T03:51:17.938Z,5.63
2018-07-24T03:52:19.668Z,5.63
2018-07-24T03:53:15.065Z,11.25
2018-07-24T03:54:15.246Z,11.25
2018-07-24T03:55:15.417Z,11.25
2018-07-24T03:56:15.591Z,11.25
2018-07-24T03:57:15.766Z,11.25
2018-07-24T03:58:15.943Z,11.25
2018-07-24T03:59:16.122Z,11.25
2018-07-24T04:00:16.314Z,11.25
2018-07-24T04:01:16.485Z,11.25
2018-07-24T04:02:16.700Z,16.88
2018-07-24T04:03:16.839Z,16.88
2018-07-24T04:04:17.008Z,16.88
2018-07-24T04:05:17.187Z,16.88
2018-07-24T04:06:17.356Z,16.88
2018-07-24T04:07:17.538Z,16.88
2018-07-24T04:08:17.707Z,16.88
2018-07-24T04:09:17.882Z,16.88
2018-07-24T04:10:18.054Z,16.88
2018-07-24T04:11:18.225Z,22.50
2018-07-24T04:12:18.408Z,22.50
2018-07-24T04:13:18.590Z,22.50
2018-07-24T04:14:18.769Z,22.50
2018-07-24T04:15:18.938Z,22.50
2018-07-24T04:16:19.109Z,22.50
2018-07-24T04:17:19.283Z,22.50
2018-07-24T04:18:19.467Z,22.50
2018-07-24T04:19:19.645Z,28.13
2018-07-24T04:20:19.812Z,28.13
2018-07-24T04:21:19.990Z,28.13
2018-07-24T04:22:20.165Z,28.13
2018-07-24T04:23:20.337Z,28.13
2018-07-24T04:24:20.516Z,28.13
2018-07-24T04:25:20.697Z,28.13
2018-07-24T04:26:20.898Z,28.13
2018-07-24T04:27:21.089Z,33.75
2018-07-24T04:28:21.255Z,33.75
2018-07-24T04:29:21.432Z,33.75
2018-07-24T04:30:21.603Z,33.75
2018-07-24T04:31:21.784Z,33.75
2018-07-24T04:32:21.968Z,33.75
2018-07-24T04:33:22.138Z,33.75
2018-07-24T04:34:22.351Z,39.38
2018-07-24T04:35:22.503Z,39.38
2018-07-24T04:36:22.680Z,39.38
2018-07-24T04:37:22.855Z,39.38
2018-07-24T04:38:23.039Z,39.38
2018-07-24T04:39:23.208Z,39.38
2018-07-24T04:40:23.384Z,39.38
2018-07-24T04:41:23.556Z,45.00
2018-07-24T04:42:23.734Z,45.00
2018-07-24T04:43:23.906Z,45.00
2018-07-24T04:44:24.077Z,45.00
2018-07-24T04:45:24.255Z,45.00
2018-07-24T04:46:29.200Z,45.00
2018-07-24T04:47:24.983Z,50.63
2018-07-24T04:48:24.864Z,50.63
2018-07-24T04:49:24.938Z,50.63
2018-07-24T04:50:25.425Z,50.63
2018-07-24T04:51:25.392Z,50.63
2018-07-24T04:52:27.593Z,50.63
2018-07-24T04:53:25.552Z,56.25
2018-07-24T04:54:25.728Z,56.25
2018-07-24T04:55:25.909Z,56.25
2018-07-24T04:56:26.506Z,56.25
2018-07-24T04:57:26.202Z,56.25
2018-07-24T04:58:26.376Z,61.88
2018-07-24T04:59:26.549Z,61.88
2018-07-24T05:00:26.729Z,61.88
2018-07-24T05:01:26.903Z,61.88
2018-07-24T05:02:27.078Z,61.88
2018-07-24T05:03:27.266Z,67.50
2018-07-24T05:04:27.441Z,67.50
2018-07-24T05:05:27.615Z,67.50
2018-07-24T05:06:27.789Z,67.50
2018-07-24T05:07:27.961Z,67.50
2018-07-24T05:08:28.138Z,73.13
2018-07-24T05:09:28.388Z,73.13
2018-07-24T05:10:28.901Z,73.13
2018-07-24T05:11:31.709Z,73.13
2018-07-24T05:12:30.970Z,73.13
2018-07-24T05:13:31.561Z,78.75
2018-07-24T05:14:31.271Z,78.75
2018-07-24T05:15:31.670Z,78.75
2018-07-24T05:16:31.283Z,78.75
2018-07-24T05:17:29.573Z,84.38
2018-07-24T05:18:29.745Z,84.38
2018-07-24T05:19:30.214Z,84.38
2018-07-24T05:20:30.137Z,84.38
2018-07-24T05:21:30.309Z,84.38
2018-07-24T05:22:30.510Z,90.00
2018-07-24T05:23:30.660Z,90.00
2018-07-24T05:24:30.997Z,90.00
2018-07-24T05:25:31.057Z,90.00
2018-07-24T05:26:31.244Z,90.00
2018-07-24T05:27:31.408Z,95.63
2018-07-24T05:28:31.587Z,95.63
2018-07-24T05:29:31.759Z,95.63
2018-07-24T05:30:31.939Z,95.63
2018-07-24T05:31:32.116Z,95.63
2018-07-24T05:32:32.301Z,95.63
2018-07-24T05:33:32.467Z,101.25
2018-07-24T05:34:32.654Z,101.25
2018-07-24T05:35:32.849Z,101.25
2018-07-24T05:36:33.040Z,101.25
2018-07-24T05:37:33.229Z,101.25
2018-07-24T05:38:33.417Z,101.25
2018-07-24T05:39:34.986Z,101.25
2018-07-24T05:40:35.548Z,101.25
2018-07-24T05:41:33.975Z,101.25
2018-07-24T05:42:35.573Z,101.25
2018-07-24T05:43:34.264Z,101.25
2018-07-24T05:44:34.450Z,106.88
2018-07-24T05:45:34.634Z,106.88
2018-07-24T05:46:34.815Z,106.88
2018-07-24T05:47:34.998Z,106.88
2018-07-24T05:48:35.207Z,106.88
2018-07-24T05:49:35.355Z,112.50
2018-07-24T05:50:35.531Z,112.50
2018-07-24T05:51:35.720Z,112.50
2018-07-24T05:52:35.891Z,112.50
2018-07-24T05:53:36.072Z,112.50
2018-07-24T05:54:36.263Z,118.13
2018-07-24T05:55:36.455Z,118.13
2018-07-24T05:56:36.629Z,118.13
2018-07-24T05:57:36.807Z,123.75
2018-07-24T05:58:36.983Z,135.00
2018-07-24T05:59:37.155Z,146.25
2018-07-24T06:00:37.350Z,163.13
2018-07-24T06:01:37.531Z,168.75
2018-07-24T06:02:37.761Z,174.38
2018-07-24T06:03:37.949Z,180.00
2018-07-24T06:04:38.130Z,185.63
2018-07-24T06:05:38.306Z,185.63
2018-07-24T06:06:38.487Z,191.25
2018-07-24T06:07:38.670Z,196.88
2018-07-24T06:08:38.849Z,208.13
2018-07-24T06:09:39.103Z,225.00
2018-07-24T06:10:39.212Z,258.75
2018-07-24T06:11:39.401Z,331.88
2018-07-24T06:12:39.577Z,410.63
2018-07-24T06:13:39.759Z,461.25
2018-07-24T06:14:39.946Z,478.13
2018-07-24T06:15:40.115Z,489.38
2018-07-24T06:16:40.410Z,495.00
2018-07-24T06:17:44.155Z,500.63
2018-07-24T06:18:40.615Z,506.25
2018-07-24T06:19:40.802Z,517.50
2018-07-24T06:20:40.990Z,528.75
2018-07-24T06:21:45.880Z,545.63
2018-07-24T06:22:41.382Z,551.25
2018-07-24T06:23:41.630Z,562.50
2018-07-24T06:24:41.773Z,585.00
2018-07-24T06:25:41.955Z,596.25
2018-07-24T06:26:42.140Z,618.75
2018-07-24T06:27:42.319Z,635.63
2018-07-24T06:28:43.748Z,652.50
2018-07-24T06:29:42.721Z,675.00
2018-07-24T06:30:42.894Z,708.75
2018-07-24T06:31:43.091Z,725.63
2018-07-24T06:32:43.270Z,753.75
2018-07-24T06:33:43.456Z,793.13
2018-07-24T06:34:43.645Z,838.13
2018-07-24T06:35:43.829Z,866.25
2018-07-24T06:36:44.017Z,900.00
2018-07-24T06:37:44.200Z,939.38
2018-07-24T06:38:44.383Z,995.63
2018-07-24T06:39:44.624Z,1046.25
2018-07-24T06:40:44.759Z,1119.38
2018-07-24T06:41:44.939Z,1209.38
2018-07-24T06:42:45.135Z,1276.88
2018-07-24T06:43:45.312Z,1378.13
2018-07-24T06:44:45.503Z,1490.63
2018-07-24T06:45:45.689Z,1653.75
2018-07-24T06:46:45.883Z,1918.13
2018-07-24T06:47:46.078Z,2171.25
2018-07-24T06:48:46.300Z,2340.00
2018-07-24T06:49:46.486Z,2401.88
2018-07-24T06:50:46.681Z,2368.13
2018-07-24T06:51:46.980Z,2452.50
2018-07-24T06:52:47.059Z,2632.50
2018-07-24T06:53:47.435Z,2863.13
2018-07-24T06:54:47.455Z,2908.13
2018-07-24T06:55:47.654Z,2705.63
2018-07-24T06:56:47.867Z,2430.00
2018-07-24T06:57:48.039Z,2182.50
2018-07-24T06:58:48.243Z,2013.75
2018-07-24T06:59:48.424Z,1890.00
2018-07-24T07:00:48.610Z,1805.63
2018-07-24T07:01:48.799Z,1732.50
2018-07-24T07:02:48.986Z,1636.88
2018-07-24T07:03:49.193Z,1569.38
2018-07-24T07:04:50.854Z,1518.75
2018-07-24T07:05:49.895Z,1451.25
2018-07-24T07:06:51.093Z,1395.00
2018-07-24T07:07:50.682Z,1344.38
2018-07-24T07:08:52.027Z,1299.38
2018-07-24T07:09:51.446Z,1276.88
2018-07-24T07:10:50.500Z,1260.00
2018-07-24T07:11:50.591Z,1243.13
2018-07-24T07:12:50.764Z,1226.25
2018-07-24T07:13:50.999Z,1215.00
2018-07-24T07:14:51.072Z,1215.00
2018-07-24T07:15:51.295Z,1215.00
2018-07-24T07:16:51.488Z,1215.00
2018-07-24T07:17:51.691Z,1215.00
2018-07-24T07:18:51.883Z,1220.63
2018-07-24T07:19:52.103Z,1220.63
2018-07-24T07:20:52.254Z,1248.75
2018-07-24T07:21:52.455Z,1248.75
2018-07-24T07:22:52.655Z,1260.00
2018-07-24T07:23:52.833Z,1288.13
2018-07-24T07:24:53.062Z,1321.88
2018-07-24T07:25:53.379Z,1333.13
2018-07-24T07:26:53.407Z,1338.75
2018-07-24T07:27:53.625Z,1366.88
2018-07-24T07:28:53.810Z,1406.25
2018-07-24T07:29:54.503Z,1428.75
2018-07-24T07:30:54.167Z,1462.50
2018-07-24T07:31:54.423Z,1501.88
2018-07-24T07:32:54.613Z,1518.75
2018-07-24T07:33:55.563Z,1546.88
2018-07-24T07:34:55.806Z,1563.75
2018-07-24T07:35:55.208Z,1597.50
2018-07-24T07:36:57.702Z,1620.00
2018-07-24T07:37:56.078Z,1631.25
2018-07-24T07:38:55.723Z,1642.50
2018-07-24T07:39:56.454Z,1665.00
2018-07-24T07:40:57.072Z,1698.75
2018-07-24T07:41:56.791Z,1749.38
2018-07-24T07:42:58.166Z,1766.25
2018-07-24T07:43:58.757Z,1771.88
2018-07-24T07:44:58.275Z,1811.25
2018-07-24T07:45:59.640Z,1850.63
2018-07-24T07:46:58.488Z,1884.38
2018-07-24T07:47:58.930Z,1901.25
2018-07-24T07:48:58.533Z,1940.63
2018-07-24T07:49:57.798Z,1957.50
2018-07-24T07:50:57.670Z,1974.38
2018-07-24T07:52:01.146Z,2002.50
2018-07-24T07:52:58.076Z,2047.50
2018-07-24T07:54:01.401Z,2075.63
2018-07-24T07:54:59.687Z,2103.75
2018-07-24T07:55:58.816Z,2137.50
2018-07-24T07:56:58.918Z,2160.00
2018-07-24T07:57:59.111Z,2171.25
2018-07-24T07:58:59.402Z,2193.75
2018-07-24T07:59:59.478Z,2210.63
2018-07-24T08:00:59.761Z,2227.50
2018-07-24T08:01:59.824Z,2233.13
2018-07-24T08:03:00.014Z,2244.38
2018-07-24T08:04:00.479Z,2255.63
2018-07-24T08:05:00.510Z,2255.63
2018-07-24T08:06:00.632Z,2272.50
2018-07-24T08:07:00.758Z,2261.25
2018-07-24T08:08:01.588Z,2261.25
2018-07-24T08:09:01.484Z,2238.75
2018-07-24T08:10:01.323Z,2221.88
2018-07-24T08:11:03.242Z,2199.38
2018-07-24T08:12:04.080Z,2182.50
2018-07-24T08:13:03.813Z,2171.25
2018-07-24T08:14:06.803Z,2143.13
2018-07-24T08:15:02.800Z,2115.00
2018-07-24T08:16:02.705Z,2092.50
2018-07-24T08:17:02.572Z,2081.25
2018-07-24T08:18:02.768Z,2053.13
2018-07-24T08:19:02.986Z,2019.38
2018-07-24T08:20:03.174Z,1991.25
2018-07-24T08:21:03.356Z,1951.88
2018-07-24T08:22:03.554Z,1918.13
2018-07-24T08:23:03.753Z,1890.00
2018-07-24T08:24:03.939Z,1867.50
2018-07-24T08:25:04.144Z,1833.75
2018-07-24T08:26:04.337Z,1816.88
2018-07-24T08:27:04.534Z,1783.13
2018-07-24T08:28:04.742Z,1749.38
2018-07-24T08:29:04.932Z,1721.25
2018-07-24T08:30:05.178Z,1681.88
2018-07-24T08:31:05.395Z,1653.75
2018-07-24T08:32:05.854Z,1625.63
2018-07-24T08:33:05.823Z,1586.25
2018-07-24T08:34:05.981Z,1558.13
2018-07-24T08:35:06.175Z,1535.63
2018-07-24T08:36:06.396Z,1501.88
2018-07-24T08:37:06.590Z,1468.13
2018-07-24T08:38:06.826Z,1451.25
2018-07-24T08:39:07.035Z,1428.75
2018-07-24T08:40:07.227Z,1400.63
2018-07-24T08:41:07.431Z,1378.13
2018-07-24T08:42:07.693Z,1350.00
2018-07-24T08:43:07.802Z,1333.13
2018-07-24T08:44:08.006Z,1310.63
2018-07-24T08:45:08.198Z,1293.75
2018-07-24T08:46:08.396Z,1282.50
2018-07-24T08:47:08.590Z,1276.88
2018-07-24T08:48:08.790Z,1265.63
2018-07-24T08:49:09.028Z,1260.00
2018-07-24T08:50:09.190Z,1254.38
2018-07-24T08:51:09.381Z,1299.38
2018-07-24T08:52:09.569Z,1350.00
2018-07-24T08:53:09.945Z,1440.00
2018-07-24T08:54:10.325Z,1485.00
2018-07-24T08:55:10.484Z,1496.25
2018-07-24T08:56:10.347Z,1479.38
2018-07-24T08:57:10.554Z,1473.75
2018-07-24T08:58:10.750Z,1473.75
2018-07-24T08:59:10.953Z,1479.38
2018-07-24T09:00:11.144Z,1468.13
2018-07-24T09:01:11.340Z,1445.63
2018-07-24T09:02:11.582Z,1440.00
2018-07-24T09:03:11.803Z,1479.38
2018-07-24T09:04:12.034Z,1563.75
2018-07-24T09:05:12.182Z,1743.75
2018-07-24T09:06:12.398Z,1890.00
2018-07-24T09:07:12.594Z,2503.13
2018-07-24T09:08:12.796Z,6187.50
2018-07-24T09:09:13.007Z,6721.88
2018-07-24T09:10:13.263Z,2891.25
2018-07-24T09:11:13.523Z,2317.50
2018-07-24T09:12:13.592Z,1822.50
2018-07-24T09:13:13.787Z,1575.00
2018-07-24T09:14:13.995Z,1462.50
2018-07-24T09:15:14.197Z,1383.75
2018-07-24T09:16:14.476Z,1316.25
2018-07-24T09:17:14.568Z,1276.88
2018-07-24T09:18:14.766Z,1231.88
2018-07-24T09:19:14.958Z,1209.38
2018-07-24T09:20:15.160Z,1181.25
2018-07-24T09:21:15.366Z,1153.13
2018-07-24T09:22:15.554Z,1141.88
2018-07-24T09:23:16.072Z,1102.50
2018-07-24T09:24:16.396Z,1068.75
2018-07-24T09:25:17.287Z,1035.00
2018-07-24T09:26:16.371Z,1018.13
2018-07-24T09:27:16.376Z,1006.88
2018-07-24T09:28:17.176Z,990.00
2018-07-24T09:29:16.710Z,967.50
2018-07-24T09:30:16.901Z,950.63
2018-07-24T09:31:17.728Z,956.25
2018-07-24T09:32:17.799Z,945.00
2018-07-24T09:33:18.086Z,939.38
2018-07-24T09:34:17.965Z,939.38
2018-07-24T09:35:18.311Z,939.38
2018-07-24T09:36:18.451Z,928.13
2018-07-24T09:37:18.292Z,922.50
2018-07-24T09:38:18.875Z,916.88
2018-07-24T09:39:19.455Z,905.63
2018-07-24T09:40:19.221Z,894.38
2018-07-24T09:41:19.104Z,883.13
2018-07-24T09:42:19.303Z,877.50
2018-07-24T09:43:19.505Z,860.63
2018-07-24T09:44:19.543Z,855.00
2018-07-24T09:45:19.857Z,843.75
2018-07-24T09:46:19.943Z,843.75
2018-07-24T09:47:19.900Z,838.13
2018-07-24T09:48:20.160Z,843.75
2018-07-24T09:49:20.048Z,826.88
2018-07-24T09:50:20.248Z,821.25
2018-07-24T09:51:20.438Z,815.63
2018-07-24T09:52:20.624Z,815.63
2018-07-24T09:53:20.835Z,821.25
2018-07-24T09:54:21.188Z,815.63
2018-07-24T09:55:21.216Z,826.88
2018-07-24T09:56:21.607Z,838.13
2018-07-24T09:57:21.668Z,838.13
2018-07-24T09:58:22.153Z,843.75
2018-07-24T09:59:22.137Z,843.75
2018-07-24T10:00:22.502Z,849.38
2018-07-24T10:01:22.507Z,849.38
2018-07-24T10:02:22.740Z,849.38
2018-07-24T10:03:22.962Z,849.38
2018-07-24T10:04:26.368Z,849.38
2018-07-24T10:05:23.451Z,849.38
2018-07-24T10:06:23.581Z,843.75
2018-07-24T10:07:23.753Z,843.75
2018-07-24T10:08:23.931Z,849.38
2018-07-24T10:09:24.151Z,860.63
2018-07-24T10:10:24.329Z,860.63
2018-07-24T10:11:24.564Z,855.00
2018-07-24T10:12:24.577Z,855.00
2018-07-24T10:13:24.869Z,866.25
2018-07-24T10:14:25.014Z,832.50
2018-07-24T10:15:25.079Z,748.13
2018-07-24T10:16:27.350Z,613.13
2018-07-24T10:17:25.588Z,495.00
2018-07-24T10:18:25.709Z,433.13
2018-07-24T10:19:25.726Z,405.00
2018-07-24T10:20:25.915Z,399.38
2018-07-24T10:21:26.104Z,399.38
2018-07-24T10:22:26.379Z,393.75
2018-07-24T10:23:26.482Z,388.13
2018-07-24T10:24:26.709Z,388.13
2018-07-24T10:25:26.947Z,382.50
2018-07-24T10:26:26.983Z,376.88
2018-07-24T10:27:27.171Z,376.88
2018-07-24T10:28:27.359Z,371.25
2018-07-24T10:29:27.544Z,365.63
2018-07-24T10:30:27.809Z,360.00
2018-07-24T10:31:27.920Z,348.75
2018-07-24T10:32:28.109Z,348.75
2018-07-24T10:33:28.313Z,337.50
2018-07-24T10:34:29.440Z,326.25
2018-07-24T10:35:28.617Z,309.38
2018-07-24T10:36:28.862Z,298.13
2018-07-24T10:37:29.014Z,286.88
2018-07-24T10:38:29.219Z,270.00
2018-07-24T10:39:29.663Z,258.75
2018-07-24T10:40:29.607Z,247.50
2018-07-24T10:41:29.793Z,236.25
2018-07-24T10:42:29.979Z,219.38
2018-07-24T10:43:30.167Z,208.13
2018-07-24T10:44:30.361Z,196.88
2018-07-24T10:45:30.582Z,191.25
2018-07-24T10:46:30.933Z,185.63
2018-07-24T10:47:31.015Z,185.63
2018-07-24T10:48:31.206Z,185.63
2018-07-24T10:49:31.400Z,185.63
2018-07-24T10:50:31.596Z,185.63
2018-07-24T10:51:31.792Z,185.63
2018-07-24T10:52:31.989Z,180.00
2018-07-24T10:53:32.160Z,180.00
2018-07-24T10:54:32.345Z,180.00
2018-07-24T10:55:32.554Z,180.00
2018-07-24T10:56:32.760Z,180.00
2018-07-24T10:57:32.958Z,174.38
2018-07-24T10:58:33.142Z,174.38
2018-07-24T10:59:33.386Z,174.38
2018-07-24T11:00:33.444Z,174.38
2018-07-24T11:01:33.635Z,174.38
2018-07-24T11:02:33.883Z,174.38
2018-07-24T11:03:34.031Z,168.75
2018-07-24T11:04:34.721Z,168.75
2018-07-24T11:05:34.395Z,168.75
2018-07-24T11:06:34.632Z,168.75
2018-07-24T11:07:36.940Z,168.75
2018-07-24T11:08:34.954Z,168.75
2018-07-24T11:09:35.221Z,168.75
2018-07-24T11:10:35.467Z,168.75
2018-07-24T11:11:35.502Z,163.13
2018-07-24T11:12:35.828Z,163.13
2018-07-24T11:13:36.121Z,163.13
2018-07-24T11:14:36.064Z,157.50
2018-07-24T11:15:36.264Z,157.50
2018-07-24T11:16:36.474Z,157.50
2018-07-24T11:17:36.687Z,157.50
2018-07-24T11:18:36.859Z,151.88
2018-07-24T11:19:37.153Z,151.88
2018-07-24T11:20:37.219Z,151.88
2018-07-24T11:21:37.407Z,151.88
2018-07-24T11:22:37.747Z,151.88
2018-07-24T11:23:37.782Z,146.25
2018-07-24T11:24:37.981Z,146.25
2018-07-24T11:25:38.180Z,146.25
2018-07-24T11:26:38.405Z,146.25
2018-07-24T11:27:38.580Z,146.25
2018-07-24T11:28:38.788Z,140.63
2018-07-24T11:29:38.984Z,140.63
2018-07-24T11:30:39.171Z,140.63
2018-07-24T11:31:39.360Z,140.63
2018-07-24T11:32:41.355Z,140.63
2018-07-24T11:33:39.966Z,135.00
2018-07-24T11:34:39.919Z,135.00
2018-07-24T11:35:40.149Z,135.00
2018-07-24T11:36:40.316Z,135.00
2018-07-24T11:37:40.503Z,135.00
2018-07-24T11:38:40.755Z,135.00
2018-07-24T11:39:40.875Z,135.00
2018-07-24T11:40:41.077Z,135.00
2018-07-24T11:41:41.289Z,135.00
2018-07-24T11:42:41.472Z,129.38
2018-07-24T11:43:41.700Z,129.38
2018-07-24T11:44:41.892Z,129.38
2018-07-24T11:45:42.104Z,129.38
2018-07-24T11:46:43.963Z,129.38
2018-07-24T11:47:44.112Z,129.38
2018-07-24T11:48:42.584Z,129.38
2018-07-24T11:49:42.846Z,129.38
2018-07-24T11:50:42.993Z,123.75
2018-07-24T11:51:43.195Z,123.75
2018-07-24T11:52:43.365Z,123.75
2018-07-24T11:53:43.560Z,123.75
2018-07-24T11:54:43.771Z,123.75
2018-07-24T11:55:43.952Z,123.75
2018-07-24T11:56:44.153Z,123.75
2018-07-24T11:57:44.358Z,123.75
2018-07-24T11:58:44.617Z,123.75
2018-07-24T11:59:44.702Z,123.75
2018-07-24T12:00:44.895Z,123.75
2018-07-24T12:01:45.089Z,123.75
2018-07-24T12:02:45.752Z,118.13
2018-07-24T12:03:45.466Z,118.13
2018-07-24T12:04:45.690Z,118.13
2018-07-24T12:05:45.833Z,118.13
2018-07-24T12:06:46.282Z,118.13
2018-07-24T12:07:46.318Z,118.13
2018-07-24T12:08:46.432Z,118.13
2018-07-24T12:09:46.615Z,112.50
2018-07-24T12:10:46.804Z,112.50
2018-07-24T12:11:47.052Z,112.50
2018-07-24T12:12:47.197Z,112.50
2018-07-24T12:13:47.387Z,112.50
2018-07-24T12:14:47.657Z,112.50
2018-07-24T12:15:47.793Z,106.88
2018-07-24T12:16:48.123Z,106.88
2018-07-24T12:17:48.228Z,106.88
2018-07-24T12:18:48.397Z,106.88
2018-07-24T12:19:48.583Z,106.88
2018-07-24T12:20:48.768Z,106.88
2018-07-24T12:21:48.964Z,106.88
2018-07-24T12:22:49.144Z,106.88
2018-07-24T12:23:49.336Z,106.88
2018-07-24T12:24:49.512Z,106.88
2018-07-24T12:25:49.702Z,101.25
2018-07-24T12:26:49.882Z,101.25
2018-07-24T12:27:50.070Z,101.25
2018-07-24T12:28:50.275Z,101.25
2018-07-24T12:29:50.438Z,101.25
2018-07-24T12:30:50.618Z,101.25
2018-07-24T12:31:50.799Z,101.25
2018-07-24T12:32:50.985Z,101.25
2018-07-24T12:33:51.169Z,101.25
2018-07-24T12:34:51.352Z,101.25
2018-07-24T12:35:51.543Z,101.25
2018-07-24T12:36:51.716Z,101.25
2018-07-24T12:37:51.905Z,101.25
2018-07-24T12:38:52.089Z,101.25
2018-07-24T12:39:52.284Z,101.25
2018-07-24T12:40:52.461Z,101.25
2018-07-24T12:41:52.646Z,95.63
2018-07-24T12:42:52.834Z,95.63